sensor_id;sensor_type;location;lat;lon;timestamp;P1;durP1;ratioP1;P2;durP2;ratioP2
13240;SDS011;6687;47.790;7.322;2023-10-19T05:23:47;0.90;;;0.90;;
13240;SDS011;6687;47.790;7.322;2023-10-19T05:26:14;0.80;;;0.80;;
13240;SDS011;6687;47.790;7.322;2023-10-19T05:28:40;1.38;;;1.27;;
13240;SDS011;6687;47.790;7.322;2023-10-19T05:31:08;1.65;;;1.20;;
13240;SDS011;6687;47.790;7.322;2023-10-19T05:33:37;1.45;;;1.27;;
13240;SDS011;6687;47.790;7.322;2023-10-19T05:36:04;0.57;;;0.57;;
13240;SDS011;6687;47.790;7.322;2023-10-19T05:38:31;3.95;;;1.05;;
13240;SDS011;6687;47.790;7.322;2023-10-19T05:40:59;1.13;;;1.02;;
13240;SDS011;6687;47.790;7.322;2023-10-19T05:43:26;1.63;;;0.88;;
13240;SDS011;6687;47.790;7.322;2023-10-19T05:45:53;0.90;;;0.90;;
13240;SDS011;6687;47.790;7.322;2023-10-19T05:48:20;1.45;;;1.23;;
13240;SDS011;6687;47.790;7.322;2023-10-19T05:50:48;1.30;;;1.15;;
13240;SDS011;6687;47.790;7.322;2023-10-19T05:53:15;1.48;;;1.38;;
13240;SDS011;6687;47.790;7.322;2023-10-19T05:55:43;1.42;;;1.33;;
13240;SDS011;6687;47.790;7.322;2023-10-19T05:58:12;1.15;;;1.05;;
13240;SDS011;6687;47.790;7.322;2023-10-19T06:00:39;1.33;;;1.20;;
13240;SDS011;6687;47.790;7.322;2023-10-19T06:03:06;1.25;;;1.15;;
13240;SDS011;6687;47.790;7.322;2023-10-19T06:05:32;1.23;;;1.13;;
13240;SDS011;6687;47.790;7.322;2023-10-19T06:07:59;0.82;;;0.82;;
13240;SDS011;6687;47.790;7.322;2023-10-19T06:10:28;1.40;;;0.80;;
13240;SDS011;6687;47.790;7.322;2023-10-19T06:12:55;0.90;;;0.90;;
13240;SDS011;6687;47.790;7.322;2023-10-19T06:15:23;0.98;;;0.98;;
13240;SDS011;6687;47.790;7.322;2023-10-19T06:17:50;0.80;;;0.80;;
13240;SDS011;6687;47.790;7.322;2023-10-19T06:20:17;0.93;;;0.80;;
13240;SDS011;6687;47.790;7.322;2023-10-19T06:22:50;0.60;;;0.60;;
13240;SDS011;6687;47.790;7.322;2023-10-19T06:25:17;1.02;;;0.80;;
13240;SDS011;6687;47.790;7.322;2023-10-19T06:27:45;0.70;;;0.70;;
13240;SDS011;6687;47.790;7.322;2023-10-19T06:30:12;1.52;;;1.30;;
13240;SDS011;6687;47.790;7.322;2023-10-19T06:32:45;1.10;;;0.90;;
13240;SDS011;6687;47.790;7.322;2023-10-19T06:35:13;0.82;;;0.82;;
13240;SDS011;6687;47.790;7.322;2023-10-19T06:37:40;1.05;;;1.00;;
13240;SDS011;6687;47.790;7.322;2023-10-19T06:40:08;1.23;;;1.00;;
13240;SDS011;6687;47.790;7.322;2023-10-19T06:42:36;1.05;;;0.90;;
13240;SDS011;6687;47.790;7.322;2023-10-19T06:45:03;1.40;;;1.30;;
13240;SDS011;6687;47.790;7.322;2023-10-19T06:47:32;1.50;;;1.40;;
13240;SDS011;6687;47.790;7.322;2023-10-19T06:50:04;1.25;;;1.20;;
13240;SDS011;6687;47.790;7.322;2023-10-19T06:52:33;1.35;;;1.25;;
13240;SDS011;6687;47.790;7.322;2023-10-19T06:55:01;0.70;;;0.65;;
13240;SDS011;6687;47.790;7.322;2023-10-19T06:57:29;1.50;;;1.40;;
13240;SDS011;6687;47.790;7.322;2023-10-19T06:59:56;1.15;;;1.08;;
13240;SDS011;6687;47.790;7.322;2023-10-19T07:02:22;1.13;;;1.08;;
13240;SDS011;6687;47.790;7.322;2023-10-19T07:04:49;1.13;;;1.13;;
13240;SDS011;6687;47.790;7.322;2023-10-19T07:07:17;3.35;;;1.00;;
13240;SDS011;6687;47.790;7.322;2023-10-19T07:09:44;1.42;;;1.33;;
13240;SDS011;6687;47.790;7.322;2023-10-19T07:12:11;1.63;;;1.52;;
13240;SDS011;6687;47.790;7.322;2023-10-19T07:14:38;1.52;;;1.30;;
13240;SDS011;6687;47.790;7.322;2023-10-19T07:17:06;1.10;;;1.00;;
13240;SDS011;6687;47.790;7.322;2023-10-19T07:19:32;0.90;;;0.90;;
13240;SDS011;6687;47.790;7.322;2023-10-19T07:21:59;1.65;;;1.33;;
13240;SDS011;6687;47.790;7.322;2023-10-19T07:24:30;1.38;;;1.27;;
13240;SDS011;6687;47.790;7.322;2023-10-19T07:27:01;0.82;;;0.75;;
13240;SDS011;6687;47.790;7.322;2023-10-19T07:29:30;1.20;;;1.10;;
13240;SDS011;6687;47.790;7.322;2023-10-19T07:31:58;1.08;;;1.08;;
13240;SDS011;6687;47.790;7.322;2023-10-19T07:34:25;1.40;;;1.10;;
13240;SDS011;6687;47.790;7.322;2023-10-19T07:36:54;1.30;;;1.20;;
13240;SDS011;6687;47.790;7.322;2023-10-19T07:39:24;1.25;;;1.20;;
13240;SDS011;6687;47.790;7.322;2023-10-19T07:41:53;0.98;;;0.98;;
13240;SDS011;6687;47.790;7.322;2023-10-19T07:44:20;1.23;;;1.20;;
13240;SDS011;6687;47.790;7.322;2023-10-19T07:46:47;1.10;;;0.98;;
13240;SDS011;6687;47.790;7.322;2023-10-19T07:49:14;2.00;;;1.50;;
13240;SDS011;6687;47.790;7.322;2023-10-19T07:51:44;2.40;;;1.60;;
13240;SDS011;6687;47.790;7.322;2023-10-19T07:54:12;1.65;;;1.55;;
13240;SDS011;6687;47.790;7.322;2023-10-19T07:56:38;1.67;;;1.20;;
13240;SDS011;6687;47.790;7.322;2023-10-19T07:59:07;1.98;;;1.88;;
13240;SDS011;6687;47.790;7.322;2023-10-19T08:01:34;1.65;;;1.55;;
13240;SDS011;6687;47.790;7.322;2023-10-19T08:04:01;1.08;;;1.08;;
13240;SDS011;6687;47.790;7.322;2023-10-19T08:06:28;1.52;;;1.27;;
13240;SDS011;6687;47.790;7.322;2023-10-19T08:08:56;1.20;;;1.10;;
13240;SDS011;6687;47.790;7.322;2023-10-19T08:11:23;1.13;;;1.13;;
13240;SDS011;6687;47.790;7.322;2023-10-19T08:13:49;1.27;;;1.17;;
13240;SDS011;6687;47.790;7.322;2023-10-19T08:16:18;1.27;;;1.17;;
13240;SDS011;6687;47.790;7.322;2023-10-19T08:18:45;2.28;;;1.67;;
13240;SDS011;6687;47.790;7.322;2023-10-19T08:21:12;1.77;;;1.60;;
13240;SDS011;6687;47.790;7.322;2023-10-19T08:23:39;1.65;;;1.25;;
13240;SDS011;6687;47.790;7.322;2023-10-19T08:26:06;1.80;;;1.70;;
13240;SDS011;6687;47.790;7.322;2023-10-19T08:28:33;1.65;;;1.55;;
13240;SDS011;6687;47.790;7.322;2023-10-19T08:31:00;1.15;;;1.15;;
13240;SDS011;6687;47.790;7.322;2023-10-19T08:33:28;1.73;;;1.63;;
13240;SDS011;6687;47.790;7.322;2023-10-19T08:35:58;2.08;;;1.42;;
13240;SDS011;6687;47.790;7.322;2023-10-19T08:38:26;1.70;;;1.60;;
13240;SDS011;6687;47.790;7.322;2023-10-19T08:40:53;1.50;;;1.40;;
13240;SDS011;6687;47.790;7.322;2023-10-19T08:43:20;1.38;;;1.33;;
13240;SDS011;6687;47.790;7.322;2023-10-19T08:45:47;2.50;;;1.48;;
13240;SDS011;6687;47.790;7.322;2023-10-19T08:48:14;1.27;;;1.17;;
13240;SDS011;6687;47.790;7.322;2023-10-19T08:50:42;1.60;;;1.50;;
13240;SDS011;6687;47.790;7.322;2023-10-19T08:53:11;1.45;;;1.35;;
13240;SDS011;6687;47.790;7.322;2023-10-19T08:55:40;1.35;;;1.25;;
13240;SDS011;6687;47.790;7.322;2023-10-19T08:58:06;2.33;;;1.40;;
13240;SDS011;6687;47.790;7.322;2023-10-19T09:00:43;1.77;;;1.67;;
13240;SDS011;6687;47.790;7.322;2023-10-19T09:03:12;2.80;;;2.60;;
13240;SDS011;6687;47.790;7.322;2023-10-19T09:05:43;3.80;;;2.88;;
13240;SDS011;6687;47.790;7.322;2023-10-19T09:08:13;8.40;;;2.53;;
13240;SDS011;6687;47.790;7.322;2023-10-19T09:10:42;3.55;;;1.90;;
13240;SDS011;6687;47.790;7.322;2023-10-19T09:13:11;2.30;;;1.38;;
13240;SDS011;6687;47.790;7.322;2023-10-19T09:15:41;2.38;;;1.42;;
13240;SDS011;6687;47.790;7.322;2023-10-19T09:18:14;2.92;;;1.80;;
13240;SDS011;6687;47.790;7.322;2023-10-19T09:20:43;1.52;;;1.20;;
13240;SDS011;6687;47.790;7.322;2023-10-19T09:23:21;0.85;;;0.85;;
13240;SDS011;6687;47.790;7.322;2023-10-19T09:25:49;1.38;;;1.20;;
13240;SDS011;6687;47.790;7.322;2023-10-19T09:28:17;1.05;;;0.95;;
13240;SDS011;6687;47.790;7.322;2023-10-19T09:30:44;1.88;;;1.35;;
13240;SDS011;6687;47.790;7.322;2023-10-19T09:33:13;2.22;;;1.02;;
13240;SDS011;6687;47.790;7.322;2023-10-19T09:35:44;1.55;;;1.45;;
13240;SDS011;6687;47.790;7.322;2023-10-19T09:38:13;0.98;;;0.98;;
13240;SDS011;6687;47.790;7.322;2023-10-19T09:40:40;1.88;;;1.45;;
13240;SDS011;6687;47.790;7.322;2023-10-19T09:43:08;1.10;;;1.10;;
13240;SDS011;6687;47.790;7.322;2023-10-19T09:45:41;1.38;;;1.27;;
13240;SDS011;6687;47.790;7.322;2023-10-19T09:48:08;0.93;;;0.93;;
13240;SDS011;6687;47.790;7.322;2023-10-19T09:50:43;0.98;;;0.88;;
13240;SDS011;6687;47.790;7.322;2023-10-19T09:53:16;0.70;;;0.70;;
13240;SDS011;6687;47.790;7.322;2023-10-19T09:55:45;0.70;;;0.70;;
13240;SDS011;6687;47.790;7.322;2023-10-19T09:58:16;1.65;;;1.17;;
13240;SDS011;6687;47.790;7.322;2023-10-19T10:00:46;0.77;;;0.77;;
13240;SDS011;6687;47.790;7.322;2023-10-19T10:06:12;1.73;;;1.00;;
13240;SDS011;6687;47.790;7.322;2023-10-19T10:08:40;1.25;;;1.02;;
13240;SDS011;6687;47.790;7.322;2023-10-19T10:11:18;1.02;;;1.02;;
13240;SDS011;6687;47.790;7.322;2023-10-19T10:13:47;0.60;;;0.60;;
13240;SDS011;6687;47.790;7.322;2023-10-19T10:16:17;1.25;;;0.82;;
13240;SDS011;6687;47.790;7.322;2023-10-19T10:18:46;0.80;;;0.80;;
13240;SDS011;6687;47.790;7.322;2023-10-19T10:21:17;1.33;;;1.17;;
13240;SDS011;6687;47.790;7.322;2023-10-19T10:23:46;1.00;;;0.90;;
13240;SDS011;6687;47.790;7.322;2023-10-19T10:26:15;1.58;;;0.98;;
13240;SDS011;6687;47.790;7.322;2023-10-19T10:28:45;0.80;;;0.80;;
13240;SDS011;6687;47.790;7.322;2023-10-19T10:31:13;0.70;;;0.70;;
13240;SDS011;6687;47.790;7.322;2023-10-19T10:33:42;0.75;;;0.55;;
13240;SDS011;6687;47.790;7.322;2023-10-19T10:36:13;0.93;;;0.85;;
13240;SDS011;6687;47.790;7.322;2023-10-19T10:38:43;2.13;;;0.95;;
13240;SDS011;6687;47.790;7.322;2023-10-19T10:41:10;0.63;;;0.63;;
13240;SDS011;6687;47.790;7.322;2023-10-19T10:43:50;0.63;;;0.63;;
13240;SDS011;6687;47.790;7.322;2023-10-19T10:46:19;1.35;;;0.77;;
13240;SDS011;6687;47.790;7.322;2023-10-19T10:48:47;0.70;;;0.70;;
13240;SDS011;6687;47.790;7.322;2023-10-19T10:51:15;1.75;;;1.10;;
13240;SDS011;6687;47.790;7.322;2023-10-19T10:53:50;1.55;;;0.95;;
13240;SDS011;6687;47.790;7.322;2023-10-19T10:56:18;1.02;;;0.98;;
13240;SDS011;6687;47.790;7.322;2023-10-19T10:58:46;1.80;;;1.17;;
13240;SDS011;6687;47.790;7.322;2023-10-19T11:01:13;0.70;;;0.70;;
13240;SDS011;6687;47.790;7.322;2023-10-19T11:03:40;1.40;;;0.77;;
13240;SDS011;6687;47.790;7.322;2023-10-19T11:06:08;1.17;;;0.93;;
13240;SDS011;6687;47.790;7.322;2023-10-19T11:08:35;1.77;;;1.20;;
13240;SDS011;6687;47.790;7.322;2023-10-19T11:11:05;1.75;;;1.27;;
13240;SDS011;6687;47.790;7.322;2023-10-19T11:13:32;0.80;;;0.80;;
13240;SDS011;6687;47.790;7.322;2023-10-19T11:16:03;1.65;;;1.05;;
13240;SDS011;6687;47.790;7.322;2023-10-19T11:18:32;0.93;;;0.93;;
13240;SDS011;6687;47.790;7.322;2023-10-19T11:21:03;1.30;;;1.23;;
13240;SDS011;6687;47.790;7.322;2023-10-19T11:23:35;0.77;;;0.77;;
13240;SDS011;6687;47.790;7.322;2023-10-19T11:26:02;3.40;;;2.80;;
13240;SDS011;6687;47.790;7.322;2023-10-19T11:28:31;1.45;;;1.35;;
13240;SDS011;6687;47.790;7.322;2023-10-19T11:31:12;2.05;;;1.80;;
13240;SDS011;6687;47.790;7.322;2023-10-19T11:33:43;2.25;;;1.90;;
13240;SDS011;6687;47.790;7.322;2023-10-19T11:36:11;2.13;;;1.63;;
13240;SDS011;6687;47.790;7.322;2023-10-19T11:38:41;1.63;;;1.33;;
13240;SDS011;6687;47.790;7.322;2023-10-19T11:41:09;1.95;;;1.50;;
13240;SDS011;6687;47.790;7.322;2023-10-19T11:43:39;2.08;;;0.90;;
13240;SDS011;6687;47.790;7.322;2023-10-19T11:46:06;2.13;;;1.60;;
13240;SDS011;6687;47.790;7.322;2023-10-19T11:48:33;1.48;;;1.30;;
13240;SDS011;6687;47.790;7.322;2023-10-19T11:51:01;1.45;;;1.35;;
13240;SDS011;6687;47.790;7.322;2023-10-19T11:53:30;1.23;;;1.13;;
13240;SDS011;6687;47.790;7.322;2023-10-19T11:55:59;1.27;;;1.17;;
13240;SDS011;6687;47.790;7.322;2023-10-19T11:58:29;2.28;;;1.52;;
13240;SDS011;6687;47.790;7.322;2023-10-19T12:00:59;1.20;;;1.10;;
13240;SDS011;6687;47.790;7.322;2023-10-19T12:03:25;1.20;;;1.10;;
13240;SDS011;6687;47.790;7.322;2023-10-19T12:05:53;0.95;;;0.95;;
13240;SDS011;6687;47.790;7.322;2023-10-19T12:08:20;1.30;;;1.20;;
13240;SDS011;6687;47.790;7.322;2023-10-19T12:10:47;1.27;;;1.17;;
13240;SDS011;6687;47.790;7.322;2023-10-19T12:13:14;1.63;;;1.52;;
13240;SDS011;6687;47.790;7.322;2023-10-19T12:15:41;1.20;;;1.20;;
13240;SDS011;6687;47.790;7.322;2023-10-19T12:18:17;1.55;;;1.38;;
13240;SDS011;6687;47.790;7.322;2023-10-19T12:20:45;1.35;;;1.25;;
13240;SDS011;6687;47.790;7.322;2023-10-19T12:23:12;2.13;;;1.45;;
13240;SDS011;6687;47.790;7.322;2023-10-19T12:25:39;1.60;;;1.40;;
13240;SDS011;6687;47.790;7.322;2023-10-19T12:28:07;1.58;;;1.48;;
13240;SDS011;6687;47.790;7.322;2023-10-19T12:30:38;1.45;;;1.35;;
13240;SDS011;6687;47.790;7.322;2023-10-19T12:33:06;1.80;;;1.45;;
13240;SDS011;6687;47.790;7.322;2023-10-19T12:35:38;1.88;;;1.35;;
13240;SDS011;6687;47.790;7.322;2023-10-19T12:38:14;1.65;;;1.55;;
13240;SDS011;6687;47.790;7.322;2023-10-19T12:40:44;1.63;;;1.50;;
13240;SDS011;6687;47.790;7.322;2023-10-19T12:43:12;1.35;;;1.25;;
13240;SDS011;6687;47.790;7.322;2023-10-19T12:45:39;1.38;;;1.27;;
13240;SDS011;6687;47.790;7.322;2023-10-19T12:48:07;1.92;;;1.83;;
13240;SDS011;6687;47.790;7.322;2023-10-19T12:50:37;2.40;;;1.48;;
13240;SDS011;6687;47.790;7.322;2023-10-19T12:53:06;2.88;;;1.40;;
13240;SDS011;6687;47.790;7.322;2023-10-19T12:55:34;1.30;;;1.20;;
13240;SDS011;6687;47.790;7.322;2023-10-19T12:58:03;1.75;;;1.35;;
13240;SDS011;6687;47.790;7.322;2023-10-19T13:00:34;1.60;;;1.50;;
13240;SDS011;6687;47.790;7.322;2023-10-19T13:03:09;2.60;;;1.55;;
13240;SDS011;6687;47.790;7.322;2023-10-19T13:05:40;2.47;;;2.28;;
13240;SDS011;6687;47.790;7.322;2023-10-19T13:08:09;1.25;;;1.23;;
13240;SDS011;6687;47.790;7.322;2023-10-19T13:10:38;0.98;;;0.85;;
13240;SDS011;6687;47.790;7.322;2023-10-19T13:13:07;1.10;;;1.10;;
13240;SDS011;6687;47.790;7.322;2023-10-19T13:15:37;0.70;;;0.70;;
13240;SDS011;6687;47.790;7.322;2023-10-19T13:18:05;2.05;;;1.20;;
13240;SDS011;6687;47.790;7.322;2023-10-19T13:20:34;1.02;;;0.93;;
13240;SDS011;6687;47.790;7.322;2023-10-19T13:23:04;1.25;;;1.13;;
13240;SDS011;6687;47.790;7.322;2023-10-19T13:25:36;0.70;;;0.70;;
13240;SDS011;6687;47.790;7.322;2023-10-19T13:28:12;1.65;;;1.55;;
13240;SDS011;6687;47.790;7.322;2023-10-19T13:30:41;1.58;;;1.33;;
13240;SDS011;6687;47.790;7.322;2023-10-19T13:33:09;0.95;;;0.85;;
13240;SDS011;6687;47.790;7.322;2023-10-19T13:35:36;1.17;;;1.08;;
13240;SDS011;6687;47.790;7.322;2023-10-19T13:38:06;0.80;;;0.80;;
13240;SDS011;6687;47.790;7.322;2023-10-19T13:40:34;1.27;;;1.10;;
13240;SDS011;6687;47.790;7.322;2023-10-19T13:43:01;2.00;;;1.80;;
13240;SDS011;6687;47.790;7.322;2023-10-19T13:45:30;2.45;;;1.35;;
13240;SDS011;6687;47.790;7.322;2023-10-19T13:47:58;1.63;;;1.10;;
13240;SDS011;6687;47.790;7.322;2023-10-19T13:50:24;1.85;;;1.40;;
13240;SDS011;6687;47.790;7.322;2023-10-19T13:52:53;2.00;;;1.50;;
13240;SDS011;6687;47.790;7.322;2023-10-19T13:55:23;2.28;;;1.83;;
13240;SDS011;6687;47.790;7.322;2023-10-19T13:57:50;2.50;;;2.28;;
13240;SDS011;6687;47.790;7.322;2023-10-19T14:00:17;1.60;;;1.50;;
13240;SDS011;6687;47.790;7.322;2023-10-19T14:02:55;1.20;;;1.10;;
13240;SDS011;6687;47.790;7.322;2023-10-19T14:05:24;0.95;;;0.95;;
13240;SDS011;6687;47.790;7.322;2023-10-19T14:07:51;0.93;;;0.93;;
13240;SDS011;6687;47.790;7.322;2023-10-19T14:10:18;1.20;;;1.10;;
13240;SDS011;6687;47.790;7.322;2023-10-19T14:12:48;0.95;;;0.88;;
13240;SDS011;6687;47.790;7.322;2023-10-19T14:15:15;1.50;;;1.40;;
13240;SDS011;6687;47.790;7.322;2023-10-19T14:17:43;1.40;;;1.02;;
13240;SDS011;6687;47.790;7.322;2023-10-19T14:20:11;1.40;;;1.10;;
13240;SDS011;6687;47.790;7.322;2023-10-19T14:22:39;0.80;;;0.80;;
13240;SDS011;6687;47.790;7.322;2023-10-19T14:25:07;2.15;;;1.40;;
13240;SDS011;6687;47.790;7.322;2023-10-19T14:27:37;1.77;;;1.35;;
13240;SDS011;6687;47.790;7.322;2023-10-19T14:30:07;1.20;;;1.10;;
13240;SDS011;6687;47.790;7.322;2023-10-19T14:32:36;0.98;;;0.98;;
13240;SDS011;6687;47.790;7.322;2023-10-19T14:35:04;1.10;;;0.68;;
13240;SDS011;6687;47.790;7.322;2023-10-19T14:37:34;0.93;;;0.90;;
13240;SDS011;6687;47.790;7.322;2023-10-19T14:40:04;1.05;;;0.93;;
13240;SDS011;6687;47.790;7.322;2023-10-19T14:42:34;0.98;;;0.95;;
13240;SDS011;6687;47.790;7.322;2023-10-19T14:45:02;1.60;;;1.30;;
13240;SDS011;6687;47.790;7.322;2023-10-19T14:47:31;1.88;;;1.17;;
13240;SDS011;6687;47.790;7.322;2023-10-19T14:49:58;1.95;;;1.35;;
13240;SDS011;6687;47.790;7.322;2023-10-19T14:52:25;1.23;;;1.13;;
13240;SDS011;6687;47.790;7.322;2023-10-19T14:54:52;0.80;;;0.80;;
13240;SDS011;6687;47.790;7.322;2023-10-19T14:57:18;1.20;;;1.10;;
13240;SDS011;6687;47.790;7.322;2023-10-19T14:59:45;0.93;;;0.93;;
13240;SDS011;6687;47.790;7.322;2023-10-19T15:02:12;1.02;;;1.02;;
13240;SDS011;6687;47.790;7.322;2023-10-19T15:04:40;1.40;;;0.90;;
13240;SDS011;6687;47.790;7.322;2023-10-19T15:07:08;0.88;;;0.77;;
13240;SDS011;6687;47.790;7.322;2023-10-19T15:09:35;5.40;;;1.65;;
13240;SDS011;6687;47.790;7.322;2023-10-19T15:12:02;2.10;;;1.38;;
13240;SDS011;6687;47.790;7.322;2023-10-19T15:14:29;1.77;;;1.60;;
13240;SDS011;6687;47.790;7.322;2023-10-19T15:16:56;1.98;;;1.63;;
13240;SDS011;6687;47.790;7.322;2023-10-19T15:19:22;2.50;;;1.65;;
13240;SDS011;6687;47.790;7.322;2023-10-19T15:21:50;1.80;;;1.10;;
13240;SDS011;6687;47.790;7.322;2023-10-19T15:24:17;1.13;;;1.13;;
13240;SDS011;6687;47.790;7.322;2023-10-19T15:26:43;1.58;;;1.48;;
13240;SDS011;6687;47.790;7.322;2023-10-19T15:29:10;1.55;;;1.45;;
13240;SDS011;6687;47.790;7.322;2023-10-19T15:31:36;1.77;;;1.67;;
13240;SDS011;6687;47.790;7.322;2023-10-19T15:34:04;4.35;;;2.90;;
13240;SDS011;6687;47.790;7.322;2023-10-19T15:36:30;2.40;;;1.48;;
13240;SDS011;6687;47.790;7.322;2023-10-19T15:38:58;1.55;;;1.33;;
13240;SDS011;6687;47.790;7.322;2023-10-19T15:41:25;2.08;;;1.88;;
13240;SDS011;6687;47.790;7.322;2023-10-19T15:43:52;1.67;;;1.58;;
13240;SDS011;6687;47.790;7.322;2023-10-19T15:46:18;3.90;;;1.77;;
13240;SDS011;6687;47.790;7.322;2023-10-19T15:48:48;3.22;;;1.90;;
13240;SDS011;6687;47.790;7.322;2023-10-19T15:51:15;2.72;;;1.80;;
13240;SDS011;6687;47.790;7.322;2023-10-19T15:53:41;1.42;;;1.33;;
13240;SDS011;6687;47.790;7.322;2023-10-19T15:56:09;1.92;;;1.33;;
13240;SDS011;6687;47.790;7.322;2023-10-19T15:58:36;1.83;;;1.50;;
13240;SDS011;6687;47.790;7.322;2023-10-19T16:01:03;1.90;;;1.45;;
13240;SDS011;6687;47.790;7.322;2023-10-19T16:03:31;1.63;;;1.45;;
13240;SDS011;6687;47.790;7.322;2023-10-19T16:05:57;1.45;;;1.35;;
13240;SDS011;6687;47.790;7.322;2023-10-19T16:08:24;1.02;;;1.02;;
13240;SDS011;6687;47.790;7.322;2023-10-19T16:10:51;3.85;;;1.60;;
13240;SDS011;6687;47.790;7.322;2023-10-19T16:13:20;2.03;;;1.42;;
13240;SDS011;6687;47.790;7.322;2023-10-19T16:15:47;1.25;;;1.15;;
13240;SDS011;6687;47.790;7.322;2023-10-19T16:18:14;1.20;;;1.17;;
13240;SDS011;6687;47.790;7.322;2023-10-19T16:20:41;1.30;;;0.80;;
13240;SDS011;6687;47.790;7.322;2023-10-19T16:23:08;2.33;;;1.23;;
13240;SDS011;6687;47.790;7.322;2023-10-19T16:25:34;1.02;;;1.02;;
13240;SDS011;6687;47.790;7.322;2023-10-19T16:28:01;0.90;;;0.90;;
13240;SDS011;6687;47.790;7.322;2023-10-19T16:30:29;1.15;;;1.10;;
13240;SDS011;6687;47.790;7.322;2023-10-19T16:32:56;0.88;;;0.88;;
13240;SDS011;6687;47.790;7.322;2023-10-19T16:35:23;1.13;;;1.00;;
13240;SDS011;6687;47.790;7.322;2023-10-19T16:37:51;1.05;;;1.02;;
13240;SDS011;6687;47.790;7.322;2023-10-19T16:40:18;1.27;;;1.17;;
13240;SDS011;6687;47.790;7.322;2023-10-19T16:42:45;1.10;;;1.05;;
13240;SDS011;6687;47.790;7.322;2023-10-19T16:45:12;1.23;;;1.10;;
13240;SDS011;6687;47.790;7.322;2023-10-19T16:47:40;1.80;;;1.55;;
13240;SDS011;6687;47.790;7.322;2023-10-19T16:50:08;1.00;;;1.00;;
13240;SDS011;6687;47.790;7.322;2023-10-19T16:52:36;1.08;;;1.00;;
13240;SDS011;6687;47.790;7.322;2023-10-19T16:55:03;0.95;;;0.90;;
13240;SDS011;6687;47.790;7.322;2023-10-19T16:57:32;1.33;;;1.27;;
13240;SDS011;6687;47.790;7.322;2023-10-19T16:59:59;1.27;;;1.17;;
13240;SDS011;6687;47.790;7.322;2023-10-19T17:02:26;1.13;;;1.02;;
13240;SDS011;6687;47.790;7.322;2023-10-19T17:04:54;1.30;;;1.20;;
13240;SDS011;6687;47.790;7.322;2023-10-19T17:07:21;1.00;;;1.00;;
13240;SDS011;6687;47.790;7.322;2023-10-19T17:09:48;1.10;;;1.00;;
13240;SDS011;6687;47.790;7.322;2023-10-19T17:12:15;0.95;;;0.95;;
13240;SDS011;6687;47.790;7.322;2023-10-19T17:14:42;1.67;;;1.25;;
13240;SDS011;6687;47.790;7.322;2023-10-19T17:17:09;1.05;;;1.02;;
13240;SDS011;6687;47.790;7.322;2023-10-19T17:19:36;1.10;;;1.10;;
13240;SDS011;6687;47.790;7.322;2023-10-19T17:22:04;1.10;;;0.80;;
13240;SDS011;6687;47.790;7.322;2023-10-19T17:24:31;1.75;;;1.65;;
13240;SDS011;6687;47.790;7.322;2023-10-19T17:26:57;2.15;;;1.90;;
13240;SDS011;6687;47.790;7.322;2023-10-19T17:29:24;1.40;;;1.30;;
13240;SDS011;6687;47.790;7.322;2023-10-19T17:31:51;1.73;;;1.63;;
13240;SDS011;6687;47.790;7.322;2023-10-19T17:34:17;2.15;;;1.92;;
13240;SDS011;6687;47.790;7.322;2023-10-19T17:36:44;1.73;;;1.63;;
13240;SDS011;6687;47.790;7.322;2023-10-19T17:39:14;2.58;;;2.10;;
13240;SDS011;6687;47.790;7.322;2023-10-19T17:41:41;1.70;;;1.60;;
13240;SDS011;6687;47.790;7.322;2023-10-19T17:44:11;2.70;;;1.98;;
13240;SDS011;6687;47.790;7.322;2023-10-19T17:46:38;2.25;;;2.05;;
13240;SDS011;6687;47.790;7.322;2023-10-19T17:49:06;2.50;;;2.30;;
13240;SDS011;6687;47.790;7.322;2023-10-19T17:51:33;2.40;;;2.20;;
13240;SDS011;6687;47.790;7.322;2023-10-19T17:54:00;2.25;;;2.05;;
13240;SDS011;6687;47.790;7.322;2023-10-19T17:56:29;2.22;;;2.03;;
13240;SDS011;6687;47.790;7.322;2023-10-19T17:58:56;3.72;;;2.78;;
13240;SDS011;6687;47.790;7.322;2023-10-19T18:01:23;2.50;;;2.30;;
13240;SDS011;6687;47.790;7.322;2023-10-19T18:03:50;3.33;;;2.47;;
13240;SDS011;6687;47.790;7.322;2023-10-19T18:06:17;3.05;;;2.08;;
13240;SDS011;6687;47.790;7.322;2023-10-19T18:08:44;2.58;;;2.38;;
13240;SDS011;6687;47.790;7.322;2023-10-19T18:11:11;2.63;;;2.03;;
13240;SDS011;6687;47.790;7.322;2023-10-19T18:13:39;2.65;;;2.45;;
13240;SDS011;6687;47.790;7.322;2023-10-19T18:16:06;3.58;;;2.53;;
13240;SDS011;6687;47.790;7.322;2023-10-19T18:18:33;2.42;;;2.17;;
13240;SDS011;6687;47.790;7.322;2023-10-19T18:21:00;2.17;;;2.00;;
13240;SDS011;6687;47.790;7.322;2023-10-19T18:23:28;2.20;;;1.98;;
13240;SDS011;6687;47.790;7.322;2023-10-19T18:25:55;2.35;;;2.15;;
13240;SDS011;6687;47.790;7.322;2023-10-19T18:28:22;2.00;;;1.88;;
13240;SDS011;6687;47.790;7.322;2023-10-19T18:30:55;1.85;;;1.75;;
13240;SDS011;6687;47.790;7.322;2023-10-19T18:33:23;2.25;;;1.88;;
13240;SDS011;6687;47.790;7.322;2023-10-19T18:35:56;3.05;;;2.00;;
13240;SDS011;6687;47.790;7.322;2023-10-19T18:38:23;2.03;;;1.70;;
13240;SDS011;6687;47.790;7.322;2023-10-19T18:40:55;3.30;;;1.98;;
13240;SDS011;6687;47.790;7.322;2023-10-19T18:43:23;2.53;;;2.33;;
13240;SDS011;6687;47.790;7.322;2023-10-19T18:45:49;2.25;;;2.05;;
13240;SDS011;6687;47.790;7.322;2023-10-19T18:48:18;1.60;;;1.52;;
13240;SDS011;6687;47.790;7.322;2023-10-19T18:50:53;2.08;;;1.88;;
13240;SDS011;6687;47.790;7.322;2023-10-19T18:53:21;2.15;;;1.98;;
13240;SDS011;6687;47.790;7.322;2023-10-19T18:55:49;1.67;;;1.58;;
13240;SDS011;6687;47.790;7.322;2023-10-19T18:58:16;1.95;;;1.77;;
13240;SDS011;6687;47.790;7.322;2023-10-19T19:00:43;1.90;;;1.77;;
13240;SDS011;6687;47.790;7.322;2023-10-19T19:03:18;1.83;;;1.63;;
13240;SDS011;6687;47.790;7.322;2023-10-19T19:05:44;1.73;;;1.60;;
13240;SDS011;6687;47.790;7.322;2023-10-19T19:08:11;2.13;;;1.80;;
13240;SDS011;6687;47.790;7.322;2023-10-19T19:10:38;1.60;;;1.50;;
13240;SDS011;6687;47.790;7.322;2023-10-19T19:13:05;1.75;;;1.58;;
13240;SDS011;6687;47.790;7.322;2023-10-19T19:15:31;2.13;;;1.80;;
13240;SDS011;6687;47.790;7.322;2023-10-19T19:18:00;1.52;;;1.42;;
13240;SDS011;6687;47.790;7.322;2023-10-19T19:20:28;1.63;;;1.52;;
13240;SDS011;6687;47.790;7.322;2023-10-19T19:22:55;2.05;;;1.50;;
13240;SDS011;6687;47.790;7.322;2023-10-19T19:25:22;1.38;;;1.27;;
13240;SDS011;6687;47.790;7.322;2023-10-19T19:27:48;1.55;;;1.42;;
13240;SDS011;6687;47.790;7.322;2023-10-19T19:30:15;2.60;;;1.55;;
13240;SDS011;6687;47.790;7.322;2023-10-19T19:32:42;1.75;;;1.65;;
13240;SDS011;6687;47.790;7.322;2023-10-19T19:35:10;1.80;;;1.70;;
13240;SDS011;6687;47.790;7.322;2023-10-19T19:37:38;2.20;;;1.55;;
13240;SDS011;6687;47.790;7.322;2023-10-19T19:40:07;1.60;;;1.33;;
13240;SDS011;6687;47.790;7.322;2023-10-19T19:42:37;2.00;;;1.85;;
13240;SDS011;6687;47.790;7.322;2023-10-19T19:45:07;1.63;;;1.50;;
13240;SDS011;6687;47.790;7.322;2023-10-19T19:47:36;2.75;;;1.90;;
13240;SDS011;6687;47.790;7.322;2023-10-19T19:50:03;2.03;;;1.85;;
13240;SDS011;6687;47.790;7.322;2023-10-19T19:52:31;2.13;;;1.92;;
13240;SDS011;6687;47.790;7.322;2023-10-19T19:55:03;1.55;;;1.42;;
13240;SDS011;6687;47.790;7.322;2023-10-19T19:57:31;2.75;;;1.65;;
13240;SDS011;6687;47.790;7.322;2023-10-19T19:59:59;1.80;;;1.70;;
13240;SDS011;6687;47.790;7.322;2023-10-19T20:02:29;2.72;;;1.90;;
13240;SDS011;6687;47.790;7.322;2023-10-19T20:04:55;2.35;;;2.15;;
13240;SDS011;6687;47.790;7.322;2023-10-19T20:07:22;2.28;;;2.03;;
13240;SDS011;6687;47.790;7.322;2023-10-19T20:12:18;2.35;;;1.92;;
13240;SDS011;6687;47.790;7.322;2023-10-19T20:14:45;2.53;;;2.20;;
13240;SDS011;6687;47.790;7.322;2023-10-19T20:17:12;2.53;;;2.10;;
13240;SDS011;6687;47.790;7.322;2023-10-19T20:19:38;2.10;;;1.77;;
13240;SDS011;6687;47.790;7.322;2023-10-19T20:22:06;1.58;;;1.45;;
13240;SDS011;6687;47.790;7.322;2023-10-19T20:24:33;2.40;;;1.92;;
13240;SDS011;6687;47.790;7.322;2023-10-19T20:26:59;2.28;;;2.10;;
13240;SDS011;6687;47.790;7.322;2023-10-19T20:29:27;1.73;;;1.63;;
13240;SDS011;6687;47.790;7.322;2023-10-19T20:31:55;1.73;;;1.63;;
13240;SDS011;6687;47.790;7.322;2023-10-19T20:34:22;1.95;;;1.85;;